Terminal Aerodrome Forecast
Issued by NWS

Home | Current Version | Previous Version | Text Only | Print | Product List | Glossary On
Versions: 1 2 3 4 5 6 7 8 9 10 11 12 13 14 15 16 17 18 19 20 21 22 23 24 25 26 27 28
000
FTUS43 KDMX 271141
TAFMCW
TAF
KMCW 271141Z 2712/2812 06006KT P6SM SCT025 BKN150
      TEMPO 2712/2715 BKN025
     FM271500 10007KT P6SM SCT040 BKN060
     FM280700 12007KT P6SM VCTS SCT015CB BKN035=

USA.gov is the U.S. government's official web portal to all federal, state and local government web resources and services.